Time;durP1;ratioP1;P1;durP2;ratioP2;P2;SDS_P1;SDS_P2;PMS_P1;PMS_P2;Temp;Humidity;BMP_temperature;BMP_pressure;BME280_temperature;BME280_humidity;BME280_pressure;Samples;Min_cycle;Max_cycle;Signal;HPM_P1;HPM_P2
2022/05/19 00:02:10;;;;;;;9.68;5.47;;;;;;;7.63;71.64;100164.45;1735552;82;21675;-75
2022/05/19 00:04:37;;;;;;;8.38;4.62;;;;;;;7.63;71.74;100163.14;1746072;81;21109;-75
2022/05/19 00:07:04;;;;;;;15.55;4.65;;;;;;;7.60;71.83;100165.83;1723808;83;21492;-75
2022/05/19 00:09:32;;;;;;;8.45;4.40;;;;;;;7.56;71.93;100158.87;1721504;83;21640;-75
2022/05/19 00:12:01;;;;;;;8.33;4.55;;;;;;;7.54;71.96;100156.27;1724109;83;21521;-74
2022/05/19 00:14:27;;;;;;;8.48;4.60;;;;;;;7.52;71.96;100156.73;1721546;83;21002;-77
2022/05/19 00:16:56;;;;;;;6.72;4.40;;;;;;;7.50;72.01;100156.31;1724013;83;21113;-75
2022/05/19 00:19:22;;;;;;;17.55;4.58;;;;;;;7.43;71.99;100156.41;1721922;83;21624;-75
2022/05/19 00:21:49;;;;;;;7.50;4.62;;;;;;;7.41;72.03;100159.49;1723732;83;21066;-75
2022/05/19 00:24:16;;;;;;;13.25;4.70;;;;;;;7.38;72.16;100162.14;1724125;83;21071;-75
2022/05/19 00:26:44;;;;;;;7.05;4.97;;;;;;;7.33;72.25;100152.16;1732288;82;21503;-74
2022/05/19 00:29:10;;;;;;;6.80;4.65;;;;;;;7.30;72.36;100162.66;1732665;82;21083;-74
2022/05/19 00:31:37;;;;;;;10.18;5.28;;;;;;;7.27;72.40;100162.69;1732313;82;21600;-75
2022/05/19 00:34:05;;;;;;;12.63;5.90;;;;;;;7.25;72.47;100168.39;1731935;82;21061;-75
2022/05/19 00:36:33;;;;;;;9.00;5.80;;;;;;;7.21;72.58;100170.59;1732463;82;21052;-75
2022/05/19 00:39:00;;;;;;;18.90;6.42;;;;;;;7.17;72.69;100167.59;1732145;82;21584;-74
2022/05/19 00:41:28;;;;;;;10.55;6.85;;;;;;;7.12;72.85;100163.71;1732292;81;21117;-75
2022/05/19 00:44:04;;;;;;;13.35;7.05;;;;;;;7.09;73.05;100165.50;1732120;82;21126;-77
2022/05/19 00:46:36;;;;;;;16.10;7.53;;;;;;;7.06;73.16;100166.37;1732121;82;21041;-77
2022/05/19 00:49:21;;;;;;;13.13;7.67;;;;;;;7.03;73.20;100165.13;1732033;82;21078;-77
2022/05/19 00:52:00;;;;;;;17.20;7.67;;;;;;;6.99;73.35;100178.69;1732356;82;21058;-74
2022/05/19 00:54:37;;;;;;;14.80;7.47;;;;;;;6.97;73.40;100166.48;1732453;82;21022;-75
2022/05/19 00:57:24;;;;;;;16.37;7.80;;;;;;;6.92;73.49;100170.44;1726420;82;21082;-74
2022/05/19 01:00:05;;;;;;;14.70;7.53;;;;;;;6.90;73.61;100170.05;1732151;82;21074;-73
2022/05/19 01:02:41;;;;;;;18.92;8.45;;;;;;;6.87;73.63;100173.55;1732149;82;21066;-77
2022/05/19 01:05:12;;;;;;;19.32;7.92;;;;;;;6.84;73.77;100174.88;1732055;82;21117;-74
2022/05/19 01:08:02;;;;;;;17.60;8.75;;;;;;;6.81;73.83;100174.92;1732353;82;21104;-74
2022/05/19 01:10:31;;;;;;;19.10;9.53;;;;;;;6.79;73.87;100174.94;1721992;80;21253;-75
2022/05/19 01:12:58;;;;;;;19.20;8.98;;;;;;;6.76;73.90;100170.14;1727460;83;20995;-74
2022/05/19 01:15:25;;;;;;;19.98;10.23;;;;;;;6.72;74.01;100166.69;1727764;83;21008;-74
2022/05/19 01:17:51;;;;;;;23.07;10.63;;;;;;;6.72;74.10;100173.68;1727596;83;20999;-75
2022/05/19 01:20:24;;;;;;;25.05;9.60;;;;;;;6.73;74.07;100172.81;1727538;83;21209;-77
2022/05/19 01:22:59;;;;;;;17.90;9.20;;;;;;;6.73;74.04;100174.12;1727291;83;21780;-77
2022/05/19 01:25:37;;;;;;;21.25;9.10;;;;;;;6.75;73.94;100174.52;1680485;82;21003;-77
2022/05/19 01:28:04;;;;;;;26.80;9.08;;;;;;;6.73;73.99;100172.36;1720815;82;21664;-77
2022/05/19 01:30:31;;;;;;;19.45;9.43;;;;;;;6.72;74.00;100178.91;1727387;83;21043;-77
2022/05/19 01:32:58;;;;;;;24.43;10.30;;;;;;;6.68;74.04;100170.23;1727560;82;21062;-74
2022/05/19 01:35:25;;;;;;;22.73;9.00;;;;;;;6.64;74.07;100166.77;1727713;82;21122;-74
2022/05/19 01:37:53;;;;;;;21.52;10.23;;;;;;;6.61;74.12;100176.39;1727676;83;21499;-74
2022/05/19 01:40:36;;;;;;;24.60;10.48;;;;;;;6.57;74.13;100172.91;1727330;82;21051;-74
2022/05/19 01:43:18;;;;;;;20.43;10.90;;;;;;;6.55;74.17;100175.98;1722111;83;21031;-74
2022/05/19 01:46:20;;;;;;;21.77;9.98;;;;;;;6.52;74.34;100178.61;1720922;83;21007;-77
2022/05/19 01:48:57;;;;;;;18.62;9.95;;;;;;;6.50;74.32;100179.07;1720768;83;21166;-77
2022/05/19 01:51:41;;;;;;;26.00;10.85;;;;;;;6.49;74.24;100176.91;1720332;83;21074;-77
2022/05/19 01:54:32;;;;;;;22.77;11.05;;;;;;;6.48;74.26;100172.99;1720809;83;21572;-74
2022/05/19 01:57:23;;;;;;;23.87;10.45;;;;;;;6.46;74.28;100173.00;1720795;83;21073;-74
2022/05/19 02:00:07;;;;;;;24.12;10.35;;;;;;;6.45;74.30;100179.55;1698804;83;21403;-75
2022/05/19 02:03:00;;;;;;;22.90;11.60;;;;;;;6.40;74.42;100185.25;1721238;83;21135;-77
2022/05/19 02:05:53;;;;;;;22.40;10.15;;;;;;;6.38;74.49;100187.02;1721409;83;21546;-74
2022/05/19 02:08:27;;;;;;;18.95;10.28;;;;;;;6.36;74.47;100189.63;1712072;82;21109;-76
2022/05/19 02:10:55;;;;;;;26.80;10.98;;;;;;;6.35;74.60;100189.64;1692028;84;21092;-75
2022/05/19 02:13:23;;;;;;;18.70;10.25;;;;;;;6.32;74.66;100191.41;1687916;84;21554;-74
2022/05/19 02:15:51;;;;;;;25.23;11.22;;;;;;;6.29;74.73;100191.41;1722664;83;21986;-75
2022/05/19 02:18:21;;;;;;;21.02;10.48;;;;;;;6.25;74.79;100189.68;1722394;83;21070;-75
2022/05/19 02:20:48;;;;;;;23.00;10.93;;;;;;;6.22;74.79;100194.95;1722845;83;21113;-74
2022/05/19 02:23:15;;;;;;;25.50;11.95;;;;;;;6.20;74.95;100200.60;1722246;83;21553;-74
2022/05/19 02:25:49;;;;;;;21.20;10.72;;;;;;;6.17;74.96;100199.34;1722707;83;21042;-75
2022/05/19 02:28:30;;;;;;;21.12;10.43;;;;;;;6.14;75.06;100199.35;1722582;83;21140;-77
2022/05/19 02:30:57;;;;;;;29.52;11.22;;;;;;;6.09;75.18;100201.98;1722673;83;21031;-77
2022/05/19 02:33:24;;;;;;;28.67;11.03;;;;;;;6.05;75.33;100202.00;1722484;83;21498;-76
2022/05/19 02:35:51;;;;;;;24.02;11.20;;;;;;;6.02;75.49;100202.00;1722596;83;21643;-77
2022/05/19 02:38:18;;;;;;;22.40;11.08;;;;;;;6.00;75.59;100208.98;1722508;83;21050;-77
2022/05/19 02:40:45;;;;;;;23.18;11.45;;;;;;;6.02;75.70;100211.15;1722485;83;21103;-76
2022/05/19 02:43:13;;;;;;;27.82;11.95;;;;;;;6.03;75.75;100216.81;1725884;82;21247;-77
2022/05/19 02:45:40;;;;;;;32.78;11.90;;;;;;;6.03;75.81;100216.81;1727467;83;21100;-77
2022/05/19 02:48:10;;;;;;;28.57;11.50;;;;;;;6.04;75.75;100210.73;1727298;83;21132;-74
2022/05/19 02:50:37;;;;;;;27.42;11.43;;;;;;;6.06;75.68;100215.50;1727464;83;21065;-75
2022/05/19 02:53:04;;;;;;;27.32;11.85;;;;;;;6.09;75.69;100215.48;1727167;83;21231;-73
2022/05/19 02:55:30;;;;;;;29.27;11.80;;;;;;;6.11;75.68;100212.42;1727067;82;21435;-77
2022/05/19 02:57:58;;;;;;;27.05;10.90;;;;;;;6.11;75.81;100215.04;1727106;83;21152;-75
2022/05/19 03:00:26;;;;;;;26.93;12.58;;;;;;;6.13;75.96;100221.12;1727354;83;21088;-74
2022/05/19 03:02:54;;;;;;;29.25;10.53;;;;;;;6.15;76.07;100220.66;1727413;83;21006;-74
2022/05/19 03:05:23;;;;;;;24.18;12.60;;;;;;;6.19;76.14;100219.79;1727449;83;21607;-74
2022/05/19 03:07:50;;;;;;;29.98;12.93;;;;;;;6.25;76.16;100222.80;1727348;83;21145;-75
2022/05/19 03:10:16;;;;;;;44.42;12.18;;;;;;;6.27;76.15;100227.56;1727058;83;21717;-75
2022/05/19 03:12:43;;;;;;;30.60;12.80;;;;;;;6.29;76.11;100229.31;1727231;83;21085;-74
2022/05/19 03:15:10;;;;;;;32.10;15.40;;;;;;;6.31;76.12;100228.86;1706599;83;21587;-75
2022/05/19 03:17:37;;;;;;;31.82;12.20;;;;;;;6.35;76.02;100226.23;1691786;84;21875;-74
2022/05/19 03:20:06;;;;;;;24.75;11.05;;;;;;;6.36;76.02;100225.36;1707782;84;21054;-77
2022/05/19 03:22:34;;;;;;;28.80;11.18;;;;;;;6.42;76.09;100229.23;1708059;84;21039;-77
2022/05/19 03:25:00;;;;;;;29.27;13.03;;;;;;;6.44;76.02;100230.97;1708051;83;21071;-77
2022/05/19 03:27:28;;;;;;;28.52;10.40;;;;;;;6.48;75.92;100232.67;1707982;84;21008;-75
2022/05/19 03:29:54;;;;;;;22.93;11.10;;;;;;;6.52;75.82;100226.98;1708116;84;21123;-75
2022/05/19 03:32:20;;;;;;;19.32;10.40;;;;;;;6.60;75.74;100233.03;1707818;84;21071;-74
2022/05/19 03:34:47;;;;;;;21.48;10.55;;;;;;;6.66;75.60;100226.46;1707763;84;21105;-74
2022/05/19 03:37:16;;;;;;;22.20;10.65;;;;;;;6.77;75.42;100232.05;1707716;84;21082;-76
2022/05/19 03:39:43;;;;;;;21.05;9.95;;;;;;;6.88;75.18;100228.91;1708080;84;21118;-75
2022/05/19 03:42:11;;;;;;;25.02;10.80;;;;;;;6.97;74.69;100234.05;1707279;83;21906;-75
2022/05/19 03:44:38;;;;;;;19.82;10.53;;;;;;;7.05;74.40;100237.48;1705096;84;21090;-76
2022/05/19 03:47:05;;;;;;;20.00;9.60;;;;;;;7.14;74.10;100236.97;1704946;84;21496;-75
2022/05/19 03:49:32;;;;;;;20.10;10.18;;;;;;;7.22;73.82;100240.39;1704963;84;21056;-75
2022/05/19 03:51:58;;;;;;;21.33;9.93;;;;;;;7.33;73.19;100249.02;1705135;83;21090;-75
2022/05/19 03:54:25;;;;;;;22.73;10.25;;;;;;;7.43;72.87;100241.50;1704840;84;21146;-75
2022/05/19 03:56:52;;;;;;;22.22;10.35;;;;;;;7.53;72.42;100242.70;1705002;83;22068;-75
2022/05/19 03:59:18;;;;;;;21.68;10.90;;;;;;;7.64;72.29;100248.70;1704822;83;21672;-75
2022/05/19 04:01:45;;;;;;;23.22;10.60;;;;;;;7.72;72.07;100253.41;1704924;83;21075;-75
2022/05/19 04:04:11;;;;;;;25.02;11.20;;;;;;;7.80;71.70;100249.38;1705119;83;21194;-75
2022/05/19 04:06:39;;;;;;;24.02;10.80;;;;;;;7.89;71.42;100243.19;1705018;84;21815;-75
2022/05/19 04:09:06;;;;;;;22.45;10.70;;;;;;;7.98;71.23;100246.99;1704999;84;22235;-76
2022/05/19 04:11:32;;;;;;;21.17;10.65;;;;;;;8.07;70.67;100245.59;1720621;82;20995;-75
2022/05/19 04:13:59;;;;;;;26.85;11.12;;;;;;;8.17;70.21;100255.06;1736427;82;21110;-75
2022/05/19 04:16:26;;;;;;;22.10;10.28;;;;;;;8.24;70.04;100253.23;1736064;82;21027;-75
2022/05/19 04:18:52;;;;;;;21.97;10.50;;;;;;;8.32;69.78;100250.48;1736020;82;21753;-76
2022/05/19 04:21:19;;;;;;;20.40;10.40;;;;;;;8.41;69.28;100254.77;1736042;82;21070;-75
2022/05/19 04:23:46;;;;;;;25.97;11.57;;;;;;;8.48;68.40;100259.91;1735786;82;21070;-76
2022/05/19 04:26:14;;;;;;;22.58;11.30;;;;;;;8.54;68.47;100256.36;1735719;82;21047;-75
2022/05/19 04:28:42;;;;;;;24.30;11.53;;;;;;;8.61;68.41;100260.61;1735799;82;21514;-75
2022/05/19 04:31:09;;;;;;;22.95;10.95;;;;;;;8.68;68.03;100262.70;1736173;82;21539;-74
2022/05/19 04:33:35;;;;;;;25.17;10.93;;;;;;;8.74;67.80;100265.22;1736051;82;22125;-75
2022/05/19 04:36:03;;;;;;;20.82;10.65;;;;;;;8.82;67.99;100267.28;1735947;82;21047;-75
2022/05/19 04:38:31;;;;;;;22.37;9.95;;;;;;;8.92;67.54;100274.12;1735827;82;21109;-75
2022/05/19 04:41:02;;;;;;;23.95;10.10;;;;;;;9.02;67.45;100268.73;1735939;82;21003;-75
2022/05/19 04:43:29;;;;;;;22.77;10.75;;;;;;;9.13;67.23;100272.48;1750023;81;21122;-75
2022/05/19 04:45:56;;;;;;;21.35;9.95;;;;;;;9.24;67.25;100271.41;1759685;81;21110;-75
2022/05/19 04:48:24;;;;;;;23.35;10.63;;;;;;;9.35;67.00;100276.95;1759862;81;21078;-75
2022/05/19 04:50:56;;;;;;;23.57;9.83;;;;;;;9.45;66.31;100270.64;1759913;81;21015;-75
2022/05/19 04:53:23;;;;;;;22.77;9.55;;;;;;;9.53;64.98;100280.99;1759789;81;21565;-75
2022/05/19 04:55:52;;;;;;;18.48;10.50;;;;;;;9.59;64.48;100273.87;1759771;81;21807;-75
2022/05/19 04:58:18;;;;;;;20.75;10.05;;;;;;;9.64;64.15;100272.48;1759648;81;21042;-75
2022/05/19 05:00:50;;;;;;;20.92;10.70;;;;;;;9.70;64.40;100272.80;1760055;81;21074;-75
2022/05/19 05:03:16;;;;;;;19.70;10.30;;;;;;;9.75;64.48;100275.78;1759890;81;21098;-75
2022/05/19 05:05:43;;;;;;;18.45;9.88;;;;;;;9.83;64.72;100280.45;1759795;81;21019;-75
2022/05/19 05:08:09;;;;;;;23.05;9.18;;;;;;;9.92;63.51;100278.08;1776682;80;21501;-76
2022/05/19 05:10:37;;;;;;;22.02;10.30;;;;;;;10.00;63.34;100277.48;1791209;80;22099;-74
2022/05/19 05:13:13;;;;;;;21.17;11.10;;;;;;;10.08;63.20;100281.70;1791380;80;21055;-76
2022/05/19 05:15:41;;;;;;;21.87;10.70;;;;;;;10.15;63.25;100270.16;1791343;80;21095;-75
2022/05/19 05:18:08;;;;;;;18.85;10.23;;;;;;;10.26;63.81;100270.81;1791464;80;21033;-76
2022/05/19 05:20:36;;;;;;;20.50;9.73;;;;;;;10.37;63.37;100274.12;1791061;80;21553;-75
2022/05/19 05:23:04;;;;;;;26.23;9.95;;;;;;;10.47;63.02;100269.49;1790942;80;21100;-76
2022/05/19 05:25:31;;;;;;;23.50;10.60;;;;;;;10.57;62.95;100265.78;1791401;80;21107;-75
2022/05/19 05:27:58;;;;;;;24.57;11.03;;;;;;;10.66;62.81;100273.91;1790933;80;20986;-75
2022/05/19 05:30:25;;;;;;;22.67;9.70;;;;;;;10.73;62.86;100275.50;1791516;80;21049;-76
2022/05/19 05:32:52;;;;;;;25.32;10.20;;;;;;;10.82;62.32;100270.92;1791058;80;21246;-75
2022/05/19 05:35:19;;;;;;;16.62;9.30;;;;;;;10.93;61.84;100275.49;1790739;80;21130;-76
2022/05/19 05:37:47;;;;;;;21.90;9.75;;;;;;;11.02;61.50;100265.19;1791044;80;21060;-76
2022/05/19 05:40:15;;;;;;;22.20;9.30;;;;;;;11.12;61.81;100268.86;1790939;80;20996;-75
2022/05/19 05:42:41;;;;;;;19.60;9.30;;;;;;;11.23;60.77;100270.35;1790603;80;21135;-75
2022/05/19 05:45:09;;;;;;;20.37;10.00;;;;;;;11.33;61.06;100269.21;1788032;80;21644;-76
2022/05/19 05:47:36;;;;;;;22.87;9.20;;;;;;;11.42;60.17;100272.09;1787711;80;21558;-76
2022/05/19 05:50:03;;;;;;;21.40;9.03;;;;;;;11.48;59.53;100275.42;1788078;80;21676;-75
2022/05/19 05:52:30;;;;;;;21.70;9.75;;;;;;;11.55;59.17;100275.25;1787844;80;21094;-76
2022/05/19 05:54:59;;;;;;;21.35;9.35;;;;;;;11.62;59.73;100279.47;1788113;80;20950;-75
2022/05/19 05:57:27;;;;;;;15.35;8.65;;;;;;;11.66;58.69;100267.92;1787754;80;21819;-76
2022/05/19 05:59:55;;;;;;;15.98;7.62;;;;;;;11.71;59.53;100269.98;1788232;80;21053;-75
2022/05/19 06:02:21;;;;;;;24.50;8.30;;;;;;;11.81;59.25;100275.41;1788180;80;21040;-76
2022/05/19 06:04:49;;;;;;;15.13;8.45;;;;;;;11.96;59.44;100286.02;1787868;80;21041;-76
2022/05/19 06:07:17;;;;;;;16.65;7.65;;;;;;;12.09;57.51;100286.55;1787950;80;21558;-76
2022/05/19 06:09:44;;;;;;;13.32;7.78;;;;;;;12.20;57.70;100285.77;1788098;80;22162;-76
2022/05/19 06:12:12;;;;;;;16.70;7.40;;;;;;;12.32;57.92;100281.05;1788184;80;21072;-75
2022/05/19 06:14:39;;;;;;;13.93;7.10;;;;;;;12.44;56.99;100278.06;1743036;80;21003;-76
2022/05/19 06:17:06;;;;;;;19.77;6.75;;;;;;;12.57;57.27;100285.99;1732572;82;21007;-75
2022/05/19 06:19:32;;;;;;;20.12;7.33;;;;;;;12.70;56.92;100288.28;1732347;82;21050;-75
2022/05/19 06:21:58;;;;;;;10.50;6.03;;;;;;;12.80;56.00;100293.21;1732590;82;21189;-76
2022/05/19 06:24:26;;;;;;;17.62;6.67;;;;;;;12.89;55.15;100289.88;1732231;82;21050;-76
2022/05/19 06:26:52;;;;;;;17.20;6.75;;;;;;;12.97;55.06;100290.03;1732536;82;21124;-76
2022/05/19 06:29:19;;;;;;;15.55;5.65;;;;;;;13.09;55.21;100296.70;1732583;82;21078;-76
2022/05/19 06:31:46;;;;;;;10.05;5.97;;;;;;;13.22;54.94;100295.00;1732539;82;20982;-75
2022/05/19 06:34:13;;;;;;;11.63;5.67;;;;;;;13.33;54.71;100289.79;1732780;82;21160;-75
2022/05/19 06:36:40;;;;;;;10.03;5.35;;;;;;;13.45;53.68;100288.51;1732037;82;21085;-75
2022/05/19 06:39:06;;;;;;;9.18;4.67;;;;;;;13.54;52.50;100288.64;1732356;82;21121;-75
2022/05/19 06:44:18;;;;;;;13.78;5.20;;;;;;;13.70;53.06;100291.17;1732347;81;21083;-75
2022/05/19 06:46:46;;;;;;;13.22;5.60;;;;;;;13.85;51.60;100284.48;1732400;82;21582;-76
2022/05/19 06:49:12;;;;;;;7.70;4.60;;;;;;;13.95;51.56;100288.95;1732254;82;21600;-76
2022/05/19 06:51:39;;;;;;;8.95;4.92;;;;;;;14.03;51.48;100284.25;1732086;82;21765;-82
2022/05/19 06:54:06;;;;;;;9.93;5.03;;;;;;;14.11;51.79;100282.19;1732142;82;21098;-81
2022/05/19 06:56:35;;;;;;;8.35;4.12;;;;;;;14.25;52.02;100282.13;1731943;82;21062;-82
2022/05/19 06:59:02;;;;;;;10.40;3.75;;;;;;;14.39;50.44;100285.58;1732468;82;21612;-81
2022/05/19 07:01:29;;;;;;;6.67;3.52;;;;;;;14.50;51.02;100282.06;1732182;82;20977;-76
2022/05/19 07:03:56;;;;;;;7.53;3.42;;;;;;;14.64;49.61;100280.23;1732496;82;21507;-77
2022/05/19 07:06:24;;;;;;;8.73;3.62;;;;;;;14.73;49.43;100277.70;1732133;82;21030;-77
2022/05/19 07:08:52;;;;;;;6.17;3.50;;;;;;;14.84;49.95;100276.35;1734546;80;21065;-76
2022/05/19 07:11:24;;;;;;;4.28;3.87;;;;;;;14.94;48.84;100271.98;1736140;82;21507;-76
2022/05/19 07:13:56;;;;;;;9.33;2.98;;;;;;;15.02;49.08;100276.05;1736291;82;21054;-77
2022/05/19 07:16:22;;;;;;;9.08;3.40;;;;;;;15.11;46.86;100273.48;1735819;81;20988;-77
2022/05/19 07:18:49;;;;;;;10.15;2.90;;;;;;;15.20;47.02;100269.61;1736227;82;21019;-77
2022/05/19 07:21:18;;;;;;;7.37;3.60;;;;;;;15.26;47.93;100272.45;1736319;82;21043;-77
2022/05/19 07:23:46;;;;;;;12.60;3.10;;;;;;;15.37;47.51;100270.22;1736014;82;21112;-76
2022/05/19 07:26:13;;;;;;;8.08;3.15;;;;;;;15.48;47.26;100271.92;1735774;82;21113;-76
2022/05/19 07:28:40;;;;;;;6.75;2.92;;;;;;;15.59;46.90;100272.34;1735994;82;21518;-76
2022/05/19 07:31:07;;;;;;;4.28;2.80;;;;;;;15.69;46.30;100267.50;1736023;82;20976;-77
2022/05/19 07:33:36;;;;;;;7.20;2.55;;;;;;;15.75;46.80;100277.89;1736182;82;21070;-76
2022/05/19 07:36:06;;;;;;;10.43;2.85;;;;;;;15.87;46.33;100271.17;1736125;82;21132;-77
2022/05/19 07:38:34;;;;;;;3.95;2.20;;;;;;;16.00;43.92;100273.27;1735872;82;21002;-75
2022/05/19 07:41:02;;;;;;;13.88;2.50;;;;;;;16.03;42.49;100266.02;1736281;82;21006;-76
2022/05/19 07:43:37;;;;;;;3.60;2.12;;;;;;;16.05;43.88;100266.81;1739683;81;21235;-76
2022/05/19 07:46:08;;;;;;;8.50;2.55;;;;;;;16.16;43.09;100258.38;1759852;81;21030;-77
2022/05/19 07:48:35;;;;;;;3.80;2.12;;;;;;;16.25;43.38;100257.94;1759590;81;21118;-76
2022/05/19 07:51:03;;;;;;;5.40;2.98;;;;;;;16.31;42.82;100257.66;1759828;81;21141;-76
2022/05/19 07:53:30;;;;;;;7.50;1.87;;;;;;;16.35;42.92;100253.91;1759903;81;21003;-77
2022/05/19 07:55:56;;;;;;;3.12;1.92;;;;;;;16.40;41.84;100256.84;1759654;81;21109;-75
2022/05/19 07:58:23;;;;;;;3.65;2.00;;;;;;;16.47;42.11;100251.63;1759900;81;21067;-76
2022/05/19 08:00:51;;;;;;;2.65;2.08;;;;;;;16.59;43.00;100257.67;1759716;81;21109;-77
2022/05/19 08:03:18;;;;;;;4.87;2.25;;;;;;;16.68;40.63;100253.27;1759775;81;21050;-76
2022/05/19 08:05:47;;;;;;;4.60;1.65;;;;;;;16.63;39.31;100252.62;1759671;81;21538;-75
2022/05/19 08:08:15;;;;;;;5.75;2.67;;;;;;;16.59;41.74;100251.03;1755912;81;21058;-75
2022/05/19 08:10:41;;;;;;;6.67;2.95;;;;;;;16.68;40.63;100250.61;1721741;83;21114;-76
2022/05/19 08:15:54;;;;;;;5.62;3.33;;;;;;;16.94;40.42;100247.64;1726821;83;21122;-76
2022/05/19 08:18:23;;;;;;;11.15;4.40;;;;;;;17.04;40.67;100242.26;1726506;83;21117;-76
2022/05/19 08:21:01;;;;;;;9.70;4.28;;;;;;;17.12;41.60;100244.55;1726821;83;21023;-74
2022/05/19 08:23:35;;;;;;;14.20;4.42;;;;;;;17.17;39.63;100242.04;1703906;83;21046;-76
2022/05/19 08:26:02;;;;;;;9.20;4.12;;;;;;;17.06;39.55;100241.27;1721928;83;21152;-76
2022/05/19 08:28:29;;;;;;;6.92;4.25;;;;;;;17.00;41.05;100237.57;1753092;81;21161;-77
2022/05/19 08:31:12;;;;;;;14.87;5.75;;;;;;;17.11;41.54;100236.17;1726913;83;21133;-76
2022/05/19 08:33:39;;;;;;;10.50;5.10;;;;;;;17.32;41.74;100234.23;1703374;83;21039;-76
2022/05/19 08:36:07;;;;;;;14.03;5.72;;;;;;;17.48;40.77;100230.30;1722327;83;21663;-76
2022/05/19 08:38:35;;;;;;;7.97;4.92;;;;;;;17.45;38.22;100218.88;1726907;83;21574;-75
2022/05/19 08:41:25;;;;;;;10.88;4.40;;;;;;;17.36;39.32;100225.14;1726801;83;21003;-76
2022/05/19 08:44:00;;;;;;;8.35;3.62;;;;;;;17.34;38.72;100229.20;1721952;83;21664;-76
2022/05/19 08:46:39;;;;;;;11.73;3.95;;;;;;;17.42;40.40;100223.03;1694567;83;21083;-76
2022/05/19 08:49:14;;;;;;;9.48;3.65;;;;;;;17.59;40.06;100221.30;1702410;83;21069;-76
2022/05/19 08:51:52;;;;;;;9.98;2.80;;;;;;;17.76;39.58;100213.27;1746009;82;21144;-76
2022/05/19 08:54:23;;;;;;;6.28;2.98;;;;;;;17.92;38.81;100209.81;1694467;83;21657;-76
2022/05/19 08:57:07;;;;;;;5.87;3.30;;;;;;;18.06;39.31;100209.94;1726997;83;21588;-76
2022/05/19 09:00:10;;;;;;;5.42;2.98;;;;;;;18.17;39.94;100200.89;1746041;81;21070;-75
2022/05/19 09:02:49;;;;;;;10.58;3.60;;;;;;;18.26;37.48;100206.66;1746210;82;21106;-76
2022/05/19 09:05:53;;;;;;;8.30;3.40;;;;;;;18.19;38.59;100210.98;1729102;82;21155;-76
2022/05/19 09:09:06;;;;;;;7.72;3.87;;;;;;;18.24;37.90;100213.40;1746522;82;21091;-75
2022/05/19 09:11:47;;;;;;;7.12;2.80;;;;;;;18.19;37.91;100220.30;1746168;82;20984;-76
2022/05/19 09:14:21;;;;;;;10.65;2.20;;;;;;;18.08;39.15;100202.72;1745969;82;21050;-75
2022/05/19 09:16:49;;;;;;;5.20;2.52;;;;;;;18.13;37.78;100204.65;1755701;80;21075;-74
2022/05/19 09:19:37;;;;;;;5.50;2.50;;;;;;;18.16;38.24;100207.16;1754784;81;21081;-76
2022/05/19 09:22:08;;;;;;;3.17;2.20;;;;;;;18.11;37.16;100202.55;1754546;81;21116;-75
2022/05/19 09:24:35;;;;;;;11.83;2.50;;;;;;;17.92;38.78;100200.05;1723010;83;21326;-76
2022/05/19 09:27:02;;;;;;;3.52;1.90;;;;;;;17.89;36.86;100198.88;1724539;83;21133;-75
2022/05/19 09:29:42;;;;;;;6.97;2.20;;;;;;;17.96;38.04;100202.06;1722951;83;21004;-76
2022/05/19 09:32:29;;;;;;;9.23;1.90;;;;;;;18.11;37.76;100199.89;1726055;82;21098;-76
2022/05/19 09:35:22;;;;;;;9.83;2.52;;;;;;;18.22;35.44;100202.42;1723364;83;21130;-75
2022/05/19 09:38:03;;;;;;;6.70;2.50;;;;;;;18.16;37.01;100192.50;1724683;82;21094;-76
2022/05/19 09:40:30;;;;;;;4.83;2.77;;;;;;;18.32;37.26;100192.97;1696082;83;21134;-76
2022/05/19 09:43:06;;;;;;;7.08;2.42;;;;;;;18.46;36.35;100196.19;1724943;83;21153;-76
2022/05/19 09:45:46;;;;;;;6.92;2.30;;;;;;;18.53;36.22;100182.92;1728042;83;21140;-82
2022/05/19 09:48:12;;;;;;;6.65;2.83;;;;;;;18.67;35.72;100182.98;1728275;83;21609;-81
2022/05/19 09:50:46;;;;;;;7.03;2.67;;;;;;;18.81;35.67;100184.87;1729629;83;21031;-83
2022/05/19 09:53:25;;;;;;;4.00;2.30;;;;;;;18.88;35.23;100190.73;1729150;81;21039;-75
2022/05/19 09:55:56;;;;;;;9.45;2.62;;;;;;;18.92;35.54;100185.59;1728481;82;21058;-76
2022/05/19 09:58:25;;;;;;;4.15;2.98;;;;;;;19.05;36.46;100179.92;1729577;83;21705;-75
2022/05/19 10:01:08;;;;;;;6.95;2.58;;;;;;;19.20;35.03;100174.15;1705168;82;21138;-75
2022/05/19 10:03:51;;;;;;;11.03;2.15;;;;;;;19.21;34.71;100172.33;1729389;83;21046;-75
2022/05/19 10:06:21;;;;;;;5.00;2.20;;;;;;;19.20;33.60;100170.59;1711318;82;21070;-75
2022/05/19 10:08:48;;;;;;;4.08;2.10;;;;;;;19.09;33.75;100177.44;1729592;83;21477;-75
2022/05/19 10:11:21;;;;;;;4.67;2.37;;;;;;;18.91;33.64;100171.41;1723757;82;21800;-75
2022/05/19 10:13:54;;;;;;;6.22;2.25;;;;;;;18.80;34.24;100165.80;1725861;83;21066;-76
2022/05/19 10:16:55;;;;;;;4.37;2.27;;;;;;;18.79;34.54;100166.73;1726743;83;21031;-75
2022/05/19 10:19:44;;;;;;;6.45;2.30;;;;;;;18.89;33.21;100161.77;1726822;83;21149;-76
2022/05/19 10:22:42;;;;;;;2.45;2.00;;;;;;;19.03;33.82;100152.94;1724132;83;21086;-75
2022/05/19 10:25:31;;;;;;;8.50;1.85;;;;;;;19.20;33.10;100146.59;1727020;83;21189;-75
2022/05/19 10:31:18;;;;;;;6.42;2.00;;;;;;;19.59;32.19;100139.30;1726674;83;21518;-76
2022/05/19 10:34:10;;;;;;;4.42;2.02;;;;;;;19.78;31.34;100135.02;1726888;83;21046;-76
2022/05/19 10:36:58;;;;;;;6.15;2.65;;;;;;;19.91;31.71;100140.94;1726872;83;21057;-76
2022/05/19 10:39:56;;;;;;;6.78;2.30;;;;;;;20.10;33.29;100147.30;1753448;81;21508;-76
2022/05/19 10:42:43;;;;;;;5.75;1.80;;;;;;;20.28;31.98;100144.77;1726719;83;20988;-75
2022/05/19 10:45:33;;;;;;;5.97;2.15;;;;;;;20.39;29.58;100136.91;1724168;83;22070;-75
2022/05/19 10:48:17;;;;;;;4.50;2.10;;;;;;;20.38;31.44;100136.52;1722249;83;20991;-75
2022/05/19 10:50:55;;;;;;;6.17;1.52;;;;;;;20.56;31.47;100137.59;1721798;83;21010;-75
2022/05/19 13:15:04;;;;;;;3.42;1.27;;;;;;;20.40;27.47;100013.48;1716718;82;20908;-75
2022/05/19 13:17:39;;;;;;;3.33;1.32;;;;;;;20.19;27.52;100023.78;1754635;81;21092;-76
2022/05/19 13:20:15;;;;;;;7.03;1.67;;;;;;;20.06;27.57;100015.75;1748426;81;21696;-75
2022/05/19 13:22:49;;;;;;;3.20;1.32;;;;;;;19.98;27.21;100017.58;1719919;83;21083;-76
2022/05/19 13:25:16;;;;;;;3.25;1.12;;;;;;;19.94;27.12;100016.53;1703565;84;21070;-76
2022/05/19 13:30:43;;;;;;;;;;;;;;;19.95;26.85;100007.09;1722725;83;21023;-75
2022/05/19 13:33:24;;;;;;;5.08;1.15;;;;;;;20.02;26.06;100012.42;1719947;83;21275;-74
2022/05/19 13:36:03;;;;;;;2.80;1.20;;;;;;;20.13;25.08;100018.87;1700895;83;21039;-75
2022/05/19 13:38:29;;;;;;;6.87;0.90;;;;;;;20.24;25.26;100013.67;1719267;83;21031;-75
2022/05/19 13:40:56;;;;;;;4.12;1.17;;;;;;;20.30;25.28;100001.22;1720479;83;21067;-75
2022/05/19 13:43:35;;;;;;;5.50;1.35;;;;;;;20.41;25.81;100001.84;1720003;83;21011;-76
2022/05/19 13:46:18;;;;;;;9.85;1.20;;;;;;;20.54;26.44;99998.72;1700198;83;40239;-75
2022/05/19 13:48:58;;;;;;;9.00;1.47;;;;;;;20.66;24.87;100001.05;1720173;83;21044;-75
2022/05/19 13:51:45;;;;;;;6.47;1.40;;;;;;;20.69;25.26;99994.13;1720096;83;21062;-75
2022/05/19 13:54:42;;;;;;;19.80;1.60;;;;;;;20.83;23.73;99986.97;1671956;83;21558;-75
2022/05/19 13:57:15;;;;;;;12.70;1.20;;;;;;;20.91;24.27;99978.81;1720244;83;21007;-75
2022/05/19 13:59:41;;;;;;;2.80;0.90;;;;;;;21.09;24.30;99982.47;1717643;83;21766;-75
2022/05/19 14:02:22;;;;;;;10.25;1.52;;;;;;;21.28;24.02;99977.98;1720782;83;21086;-75
2022/05/19 14:04:50;;;;;;;17.00;1.20;;;;;;;21.41;24.13;99976.14;1720416;83;21114;-75
2022/05/19 14:07:17;;;;;;;6.20;1.07;;;;;;;21.59;24.36;99982.52;1719911;83;21058;-74
2022/05/19 14:10:10;;;;;;;4.33;1.17;;;;;;;21.64;23.95;99991.06;1720003;83;21145;-74
2022/05/19 14:12:48;;;;;;;1.57;1.00;;;;;;;20.68;24.58;99969.72;1720405;83;21010;-75
2022/05/19 14:15:29;;;;;;;2.58;1.17;;;;;;;20.68;24.58;99969.72;1720305;83;21075;-75
2022/05/19 14:18:18;;;;;;;3.37;0.90;;;;;;;20.25;24.79;99975.28;1720189;83;21023;-74